Osage Beach, MO (65065)

1:26 AM CDT on August 01, 2014 (GMT -0500)
Lake of the Ozarks MM21 (KMOOSAGE4) Elev 699 ft | 38.15 °N, 92.70 °W | Change Station

Current weather conditions updated 3 minutes ago

Clear
Clear
67.8 °F
Feels Like 67.8 °F
N
0.0
Wind Variable Wind from West

Today is forecast to be nearly the same temperature as yesterday.

Today
High -- | Low -- °F
--% Chance of Precip.
Yesterday
High -- | Low -- °F
Precip. -- in
6:13 AM 8:20 PM
Waxing Crescent, 24% visible
Pressure 30.07 in
Visibility 10.0 miles
Clouds Clear
Dew Point 64 °F
Humidity 88%
Rainfall 0.00 in
Snow Depth Not available.
UV 0 out of 12
Pollen 6.60 out of 12
Air Quality Not available.
Flu Activity Not available.
METAR KAIZ 010615Z AUTO 20004KT 10SM CLR 19/15 A3007 RMK AO1

More Conditions Fewer Conditions

Pressure 30.07 in
Visibility 10.0 miles
Clouds Clear
Dew Point 64 °F
Humidity 88%
Rainfall 0.00 in
Snow Depth Not available.
UV 0 out of 12
Pollen 6.60 out of 12
Air Quality Not available.
Flu Activity Not available.
METAR KAIZ 010615Z AUTO 20004KT 10SM CLR 19/15 A3007 RMK AO1

More Conditions Fewer Conditions

10-Day Weather Forecast

Almanac

Astronomy

Aug. 01, 2014 Rise Set
Actual Time 6:13 AM CDT 8:20 PM CDT
Civil Twilight 5:44 AM CDT 8:49 PM CDT
Nautical Twilight 5:08 AM CDT 9:24 PM CDT
Astronomical Twilight 4:29 AM CDT 10:03 PM CDT
Moon 11:32 AM CDT 11:10 PM CDT
Length of Visible Light 15h 05m
Length of Day
14h 06m
Tomorrow will be 1m 52s shorter.
Waxing Crescent, 24% of the Moon is Illuminated
Today
Waxing Crescent
Aug 3
First Quarter
Aug 10
Full
Aug 17
Last Quarter
Aug 25
New

Today's Extremes

State Highs State Lows

Community

WunderPhotos

Upload Photos

1,739,522 photos uploaded!

Nearby

Snow Depth

Station Depth Elevation
No new snow has been reported.

Earthquake Activity

City Distance Mag. Time & Date
No recent earthquake activity has been reported nearby.
Minimum magnitude displayed is 2.5.

Coastal Water Temperatures

Place Temperature
No Stations Reporting

Nearby Weather Stations

Station Location Temp. Heat Index Dew Point Humidity Wind Precip. Elev Updated Type
Lake of the Ozarks MM21, Osage Beach, MO 67.8 °F - 64 °F 88% West  at  0.0 mph - / hr 699 ft 1:22 AM CDT Normal
Lake of the Ozarks, Sunrise Beach, MO 70.0 °F - 69 °F 98% West  at  0.0 mph - / hr 668 ft 2:08 AM EDT Normal
Near Big Surf, Linn Creek, MO 70.7 °F 74 °F 60 °F 70% SW  at  0.0 mph 0.00 in / hr 902 ft 1:25 AM CDT Normal
Santee Trail / Rainbow's End / Arnold's , Camdenton, MO 67.6 °F - 64 °F 88% West  at  1.7 mph - / hr 702 ft 1:25 AM CDT Normal
CAMDENTON, MO 63.8 °F - 61 °F 92% West  at  0.0 mph 0.00 in / hr 961 ft 1:24 AM CDT Normal
Bridal Cave, Camdenton, MO 68.6 °F - 62 °F 82% NNW  at  0.0 mph 0.00 in / hr 719 ft 1:25 AM CDT Rapid Fire
Beginning of Indian Creek, Barnett, MO 59.7 °F - 59 °F 98% ESE  at  0.0 mph - / hr 679 ft 1:21 AM CDT Normal
Eldon, MO 63.5 °F - 60 °F 88% North  at  0.0 mph 0.00 in / hr 918 ft 1:26 AM CDT Rapid Fire

Show More Stations Show Fewer Stations